sensor_id;sensor_type;location;lat;lon;timestamp;temperature;humidity
23713;DHT22;12035;49.978;8.298;2023-03-15T00:01:10;8.70;60.20
23713;DHT22;12035;49.978;8.298;2023-03-15T00:06:11;8.60;60.00
23713;DHT22;12035;49.978;8.298;2023-03-15T00:11:08;8.50;60.00
23713;DHT22;12035;49.978;8.298;2023-03-15T00:16:06;8.40;60.10
23713;DHT22;12035;49.978;8.298;2023-03-15T00:21:03;8.30;60.20
23713;DHT22;12035;49.978;8.298;2023-03-15T00:26:03;8.10;60.40
23713;DHT22;12035;49.978;8.298;2023-03-15T00:31:04;8.10;60.60
23713;DHT22;12035;49.978;8.298;2023-03-15T00:36:05;7.90;60.60
23713;DHT22;12035;49.978;8.298;2023-03-15T00:41:05;7.80;60.90
23713;DHT22;12035;49.978;8.298;2023-03-15T00:46:05;7.70;61.20
23713;DHT22;12035;49.978;8.298;2023-03-15T00:51:07;7.60;61.30
23713;DHT22;12035;49.978;8.298;2023-03-15T00:56:08;7.60;61.50
23713;DHT22;12035;49.978;8.298;2023-03-15T01:01:06;7.50;61.50
23713;DHT22;12035;49.978;8.298;2023-03-15T01:06:04;7.40;61.50
23713;DHT22;12035;49.978;8.298;2023-03-15T01:11:04;7.20;61.80
23713;DHT22;12035;49.978;8.298;2023-03-15T01:16:04;7.10;62.10
23713;DHT22;12035;49.978;8.298;2023-03-15T01:21:01;7.00;62.40
23713;DHT22;12035;49.978;8.298;2023-03-15T01:25:59;6.90;62.40
23713;DHT22;12035;49.978;8.298;2023-03-15T01:30:56;6.80;62.60
23713;DHT22;12035;49.978;8.298;2023-03-15T01:36:03;6.80;62.70
23713;DHT22;12035;49.978;8.298;2023-03-15T01:41:01;6.70;62.70
23713;DHT22;12035;49.978;8.298;2023-03-15T01:46:16;6.60;62.90
23713;DHT22;12035;49.978;8.298;2023-03-15T01:51:27;6.60;63.20
23713;DHT22;12035;49.978;8.298;2023-03-15T01:56:27;6.60;63.50
23713;DHT22;12035;49.978;8.298;2023-03-15T02:01:25;6.60;63.50
23713;DHT22;12035;49.978;8.298;2023-03-15T02:06:24;6.60;63.60
23713;DHT22;12035;49.978;8.298;2023-03-15T02:11:23;6.60;63.70
23713;DHT22;12035;49.978;8.298;2023-03-15T02:16:22;6.50;63.80
23713;DHT22;12035;49.978;8.298;2023-03-15T02:21:31;6.50;63.90
23713;DHT22;12035;49.978;8.298;2023-03-15T02:26:37;6.60;63.90
23713;DHT22;12035;49.978;8.298;2023-03-15T02:31:38;6.60;64.00
23713;DHT22;12035;49.978;8.298;2023-03-15T02:36:36;6.60;63.90
23713;DHT22;12035;49.978;8.298;2023-03-15T02:41:36;6.70;63.70
23713;DHT22;12035;49.978;8.298;2023-03-15T02:46:38;6.70;63.60
23713;DHT22;12035;49.978;8.298;2023-03-15T02:51:35;6.70;63.50
23713;DHT22;12035;49.978;8.298;2023-03-15T02:56:32;6.70;63.40
23713;DHT22;12035;49.978;8.298;2023-03-15T03:01:29;6.60;63.40
23713;DHT22;12035;49.978;8.298;2023-03-15T03:06:28;6.60;63.50
23713;DHT22;12035;49.978;8.298;2023-03-15T03:11:25;6.50;63.80
23713;DHT22;12035;49.978;8.298;2023-03-15T03:16:22;6.30;63.90
23713;DHT22;12035;49.978;8.298;2023-03-15T03:21:19;6.20;64.10
23713;DHT22;12035;49.978;8.298;2023-03-15T03:26:18;6.20;64.30
23713;DHT22;12035;49.978;8.298;2023-03-15T03:31:17;6.10;64.60
23713;DHT22;12035;49.978;8.298;2023-03-15T03:36:15;6.10;64.70
23713;DHT22;12035;49.978;8.298;2023-03-15T03:41:13;6.00;64.80
23713;DHT22;12035;49.978;8.298;2023-03-15T03:46:12;5.90;65.00
23713;DHT22;12035;49.978;8.298;2023-03-15T03:51:09;5.90;66.00
23713;DHT22;12035;49.978;8.298;2023-03-15T03:56:07;5.90;65.20
23713;DHT22;12035;49.978;8.298;2023-03-15T04:01:04;5.80;65.40
23713;DHT22;12035;49.978;8.298;2023-03-15T04:06:03;5.80;65.40
23713;DHT22;12035;49.978;8.298;2023-03-15T04:11:00;5.80;65.70
23713;DHT22;12035;49.978;8.298;2023-03-15T04:15:58;5.70;65.70
23713;DHT22;12035;49.978;8.298;2023-03-15T04:20:58;5.70;65.90
23713;DHT22;12035;49.978;8.298;2023-03-15T04:25:56;5.70;66.10
23713;DHT22;12035;49.978;8.298;2023-03-15T04:30:53;5.70;66.20
23713;DHT22;12035;49.978;8.298;2023-03-15T04:35:53;5.70;66.20
23713;DHT22;12035;49.978;8.298;2023-03-15T04:40:51;5.70;66.20
23713;DHT22;12035;49.978;8.298;2023-03-15T04:45:50;5.70;66.20
23713;DHT22;12035;49.978;8.298;2023-03-15T04:50:47;5.80;66.20
23713;DHT22;12035;49.978;8.298;2023-03-15T04:55:44;5.80;66.30
23713;DHT22;12035;49.978;8.298;2023-03-15T05:00:41;5.90;66.20
23713;DHT22;12035;49.978;8.298;2023-03-15T05:05:40;5.90;66.20
23713;DHT22;12035;49.978;8.298;2023-03-15T05:10:37;6.00;66.20
23713;DHT22;12035;49.978;8.298;2023-03-15T05:15:35;6.00;66.10
23713;DHT22;12035;49.978;8.298;2023-03-15T05:20:32;6.00;66.10
23713;DHT22;12035;49.978;8.298;2023-03-15T05:25:30;6.00;65.90
23713;DHT22;12035;49.978;8.298;2023-03-15T05:30:28;6.00;66.00
23713;DHT22;12035;49.978;8.298;2023-03-15T05:35:26;6.10;65.90
23713;DHT22;12035;49.978;8.298;2023-03-15T05:40:23;6.10;65.90
23713;DHT22;12035;49.978;8.298;2023-03-15T05:45:22;6.10;66.00
23713;DHT22;12035;49.978;8.298;2023-03-15T05:50:19;6.10;66.00
23713;DHT22;12035;49.978;8.298;2023-03-15T05:55:16;6.10;66.00
23713;DHT22;12035;49.978;8.298;2023-03-15T06:00:14;6.20;66.20
23713;DHT22;12035;49.978;8.298;2023-03-15T06:05:14;6.30;66.30
23713;DHT22;12035;49.978;8.298;2023-03-15T06:10:12;6.30;66.30
23713;DHT22;12035;49.978;8.298;2023-03-15T06:15:10;6.40;66.10
23713;DHT22;12035;49.978;8.298;2023-03-15T06:20:08;6.40;65.80
23713;DHT22;12035;49.978;8.298;2023-03-15T06:25:08;6.40;65.60
23713;DHT22;12035;49.978;8.298;2023-03-15T06:30:07;6.40;65.60
23713;DHT22;12035;49.978;8.298;2023-03-15T06:35:05;6.40;65.80
23713;DHT22;12035;49.978;8.298;2023-03-15T06:40:04;6.30;65.80
23713;DHT22;12035;49.978;8.298;2023-03-15T06:45:06;6.30;66.00
23713;DHT22;12035;49.978;8.298;2023-03-15T06:50:05;6.30;66.10
23713;DHT22;12035;49.978;8.298;2023-03-15T06:55:04;6.30;66.10
23713;DHT22;12035;49.978;8.298;2023-03-15T07:00:02;6.30;66.30
23713;DHT22;12035;49.978;8.298;2023-03-15T07:05:06;6.30;66.40
23713;DHT22;12035;49.978;8.298;2023-03-15T07:10:05;6.30;66.50
23713;DHT22;12035;49.978;8.298;2023-03-15T07:15:04;6.30;66.80
23713;DHT22;12035;49.978;8.298;2023-03-15T07:20:02;6.20;67.10
23713;DHT22;12035;49.978;8.298;2023-03-15T07:25:00;6.30;67.70
23713;DHT22;12035;49.978;8.298;2023-03-15T07:29:57;6.50;67.90
23713;DHT22;12035;49.978;8.298;2023-03-15T07:34:56;6.60;67.80
23713;DHT22;12035;49.978;8.298;2023-03-15T07:39:55;6.70;67.80
23713;DHT22;12035;49.978;8.298;2023-03-15T07:44:53;6.70;67.80
23713;DHT22;12035;49.978;8.298;2023-03-15T07:49:50;6.80;68.10
23713;DHT22;12035;49.978;8.298;2023-03-15T07:54:48;6.90;68.10
23713;DHT22;12035;49.978;8.298;2023-03-15T07:59:46;7.00;68.00
23713;DHT22;12035;49.978;8.298;2023-03-15T08:04:43;7.00;67.90
23713;DHT22;12035;49.978;8.298;2023-03-15T08:09:40;7.00;67.70
23713;DHT22;12035;49.978;8.298;2023-03-15T08:14:39;7.00;67.90
23713;DHT22;12035;49.978;8.298;2023-03-15T08:19:36;7.10;68.30
23713;DHT22;12035;49.978;8.298;2023-03-15T08:24:33;7.10;68.30
23713;DHT22;12035;49.978;8.298;2023-03-15T08:29:31;7.20;68.30
23713;DHT22;12035;49.978;8.298;2023-03-15T08:34:29;7.30;68.30
23713;DHT22;12035;49.978;8.298;2023-03-15T08:39:29;7.30;68.30
23713;DHT22;12035;49.978;8.298;2023-03-15T08:44:26;7.40;68.40
23713;DHT22;12035;49.978;8.298;2023-03-15T08:49:23;7.50;68.50
23713;DHT22;12035;49.978;8.298;2023-03-15T08:54:22;7.60;68.80
23713;DHT22;12035;49.978;8.298;2023-03-15T08:59:20;7.80;68.30
23713;DHT22;12035;49.978;8.298;2023-03-15T09:04:17;7.90;68.10
23713;DHT22;12035;49.978;8.298;2023-03-15T09:09:14;7.90;68.10
23713;DHT22;12035;49.978;8.298;2023-03-15T09:14:13;7.90;68.20
23713;DHT22;12035;49.978;8.298;2023-03-15T09:19:10;8.00;68.50
23713;DHT22;12035;49.978;8.298;2023-03-15T09:24:07;8.00;68.50
23713;DHT22;12035;49.978;8.298;2023-03-15T09:29:04;8.20;68.70
23713;DHT22;12035;49.978;8.298;2023-03-15T09:34:04;8.30;68.40
23713;DHT22;12035;49.978;8.298;2023-03-15T09:39:01;8.50;68.20
23713;DHT22;12035;49.978;8.298;2023-03-15T09:44:08;8.60;68.10
23713;DHT22;12035;49.978;8.298;2023-03-15T09:49:16;8.70;68.00
23713;DHT22;12035;49.978;8.298;2023-03-15T09:54:18;8.80;67.80
23713;DHT22;12035;49.978;8.298;2023-03-15T09:59:18;8.90;67.70
23713;DHT22;12035;49.978;8.298;2023-03-15T10:04:26;9.10;68.10
23713;DHT22;12035;49.978;8.298;2023-03-15T10:09:27;9.50;67.60
23713;DHT22;12035;49.978;8.298;2023-03-15T10:14:46;9.80;67.20
23713;DHT22;12035;49.978;8.298;2023-03-15T10:19:52;9.90;65.50
23713;DHT22;12035;49.978;8.298;2023-03-15T10:24:53;10.10;65.20
23713;DHT22;12035;49.978;8.298;2023-03-15T10:29:55;10.10;65.60
23713;DHT22;12035;49.978;8.298;2023-03-15T10:34:56;10.10;65.80
23713;DHT22;12035;49.978;8.298;2023-03-15T10:39:55;10.30;65.20
23713;DHT22;12035;49.978;8.298;2023-03-15T10:44:54;10.40;65.40
23713;DHT22;12035;49.978;8.298;2023-03-15T10:49:57;10.60;65.40
23713;DHT22;12035;49.978;8.298;2023-03-15T10:54:54;10.60;64.70
23713;DHT22;12035;49.978;8.298;2023-03-15T10:59:58;10.60;64.10
23713;DHT22;12035;49.978;8.298;2023-03-15T11:05:16;10.70;63.80
23713;DHT22;12035;49.978;8.298;2023-03-15T11:10:20;10.80;64.00
23713;DHT22;12035;49.978;8.298;2023-03-15T11:15:19;11.00;63.40
23713;DHT22;12035;49.978;8.298;2023-03-15T11:20:28;11.10;63.00
23713;DHT22;12035;49.978;8.298;2023-03-15T11:25:30;11.30;61.90
23713;DHT22;12035;49.978;8.298;2023-03-15T11:30:29;11.40;62.00
23713;DHT22;12035;49.978;8.298;2023-03-15T11:35:32;11.50;61.70
23713;DHT22;12035;49.978;8.298;2023-03-15T11:40:37;11.60;60.60
23713;DHT22;12035;49.978;8.298;2023-03-15T11:45:44;11.70;61.40
23713;DHT22;12035;49.978;8.298;2023-03-15T11:50:46;11.70;59.80
23713;DHT22;12035;49.978;8.298;2023-03-15T11:55:46;11.60;59.50
23713;DHT22;12035;49.978;8.298;2023-03-15T12:00:52;11.50;59.20
23713;DHT22;12035;49.978;8.298;2023-03-15T12:05:59;11.60;59.60
23713;DHT22;12035;49.978;8.298;2023-03-15T12:10:59;11.60;59.90
23713;DHT22;12035;49.978;8.298;2023-03-15T12:15:56;11.60;60.00
23713;DHT22;12035;49.978;8.298;2023-03-15T12:21:11;11.60;60.00
23713;DHT22;12035;49.978;8.298;2023-03-15T12:26:21;11.50;59.70
23713;DHT22;12035;49.978;8.298;2023-03-15T12:31:20;11.60;59.60
23713;DHT22;12035;49.978;8.298;2023-03-15T12:36:31;11.60;60.00
23713;DHT22;12035;49.978;8.298;2023-03-15T12:41:37;11.70;59.70
23713;DHT22;12035;49.978;8.298;2023-03-15T12:46:57;11.80;59.20
23713;DHT22;12035;49.978;8.298;2023-03-15T12:51:58;11.90;59.00
23713;DHT22;12035;49.978;8.298;2023-03-15T12:56:59;11.90;58.70
23713;DHT22;12035;49.978;8.298;2023-03-15T13:01:59;12.00;58.10
23713;DHT22;12035;49.978;8.298;2023-03-15T13:07:06;12.10;57.20
23713;DHT22;12035;49.978;8.298;2023-03-15T13:12:14;12.20;57.00
23713;DHT22;12035;49.978;8.298;2023-03-15T13:17:25;12.40;57.00
23713;DHT22;12035;49.978;8.298;2023-03-15T13:22:35;12.40;55.80
23713;DHT22;12035;49.978;8.298;2023-03-15T13:27:47;12.50;55.60
23713;DHT22;12035;49.978;8.298;2023-03-15T13:32:46;12.50;55.20
23713;DHT22;12035;49.978;8.298;2023-03-15T13:37:44;12.40;55.10
23713;DHT22;12035;49.978;8.298;2023-03-15T13:42:41;12.40;54.70
23713;DHT22;12035;49.978;8.298;2023-03-15T13:47:39;12.40;54.40
23713;DHT22;12035;49.978;8.298;2023-03-15T13:52:37;12.30;54.10
23713;DHT22;12035;49.978;8.298;2023-03-15T13:57:37;12.30;54.10
23713;DHT22;12035;49.978;8.298;2023-03-15T14:02:37;12.30;53.60
23713;DHT22;12035;49.978;8.298;2023-03-15T14:07:42;12.20;53.50
23713;DHT22;12035;49.978;8.298;2023-03-15T14:12:42;12.20;53.20
23713;DHT22;12035;49.978;8.298;2023-03-15T14:17:52;12.20;52.90
23713;DHT22;12035;49.978;8.298;2023-03-15T14:22:52;12.10;52.60
23713;DHT22;12035;49.978;8.298;2023-03-15T14:27:59;12.00;53.10
23713;DHT22;12035;49.978;8.298;2023-03-15T14:32:59;11.90;53.20
23713;DHT22;12035;49.978;8.298;2023-03-15T14:38:00;11.80;53.60
23713;DHT22;12035;49.978;8.298;2023-03-15T14:43:00;11.70;53.50
23713;DHT22;12035;49.978;8.298;2023-03-15T14:47:59;11.70;52.90
23713;DHT22;12035;49.978;8.298;2023-03-15T14:53:00;11.80;52.50
23713;DHT22;12035;49.978;8.298;2023-03-15T14:57:59;11.80;52.00
23713;DHT22;12035;49.978;8.298;2023-03-15T15:02:57;11.90;51.80
23713;DHT22;12035;49.978;8.298;2023-03-15T15:08:00;12.00;51.10
23713;DHT22;12035;49.978;8.298;2023-03-15T15:13:00;12.00;50.90
23713;DHT22;12035;49.978;8.298;2023-03-15T15:17:58;12.00;51.00
23713;DHT22;12035;49.978;8.298;2023-03-15T15:22:55;12.00;51.20
23713;DHT22;12035;49.978;8.298;2023-03-15T15:27:52;12.00;51.00
23713;DHT22;12035;49.978;8.298;2023-03-15T15:32:50;12.10;51.70
23713;DHT22;12035;49.978;8.298;2023-03-15T15:37:48;12.00;51.00
23713;DHT22;12035;49.978;8.298;2023-03-15T15:42:46;12.00;51.00
23713;DHT22;12035;49.978;8.298;2023-03-15T15:47:43;12.00;51.20
23713;DHT22;12035;49.978;8.298;2023-03-15T15:52:43;12.00;51.50
23713;DHT22;12035;49.978;8.298;2023-03-15T15:57:44;11.90;50.80
23713;DHT22;12035;49.978;8.298;2023-03-15T16:02:44;11.90;51.00
23713;DHT22;12035;49.978;8.298;2023-03-15T16:07:43;11.80;50.80
23713;DHT22;12035;49.978;8.298;2023-03-15T16:12:40;11.70;50.70
23713;DHT22;12035;49.978;8.298;2023-03-15T16:17:37;11.70;49.90
23713;DHT22;12035;49.978;8.298;2023-03-15T16:22:36;11.60;49.90
23713;DHT22;12035;49.978;8.298;2023-03-15T16:27:36;11.60;50.00
23713;DHT22;12035;49.978;8.298;2023-03-15T16:32:33;11.50;50.00
23713;DHT22;12035;49.978;8.298;2023-03-15T16:37:31;11.50;49.90
23713;DHT22;12035;49.978;8.298;2023-03-15T16:42:29;11.40;49.60
23713;DHT22;12035;49.978;8.298;2023-03-15T16:47:27;11.30;49.20
23713;DHT22;12035;49.978;8.298;2023-03-15T16:52:24;11.30;50.50
23713;DHT22;12035;49.978;8.298;2023-03-15T16:57:22;11.20;49.20
23713;DHT22;12035;49.978;8.298;2023-03-15T17:02:21;11.20;49.50
23713;DHT22;12035;49.978;8.298;2023-03-15T17:07:23;11.10;49.60
23713;DHT22;12035;49.978;8.298;2023-03-15T17:12:26;11.10;49.60
23713;DHT22;12035;49.978;8.298;2023-03-15T17:17:26;11.00;49.80
23713;DHT22;12035;49.978;8.298;2023-03-15T17:22:27;11.00;50.00
23713;DHT22;12035;49.978;8.298;2023-03-15T17:27:30;11.00;50.10
23713;DHT22;12035;49.978;8.298;2023-03-15T17:32:29;10.90;50.10
23713;DHT22;12035;49.978;8.298;2023-03-15T17:37:29;10.90;50.40
23713;DHT22;12035;49.978;8.298;2023-03-15T17:42:28;10.90;50.40
23713;DHT22;12035;49.978;8.298;2023-03-15T17:47:26;10.80;50.20
23713;DHT22;12035;49.978;8.298;2023-03-15T17:52:23;10.80;50.50
23713;DHT22;12035;49.978;8.298;2023-03-15T17:57:24;10.70;50.80
23713;DHT22;12035;49.978;8.298;2023-03-15T18:02:21;10.60;50.90
23713;DHT22;12035;49.978;8.298;2023-03-15T18:07:18;10.60;51.20
23713;DHT22;12035;49.978;8.298;2023-03-15T18:12:15;10.50;51.40
23713;DHT22;12035;49.978;8.298;2023-03-15T18:17:14;10.50;52.00
23713;DHT22;12035;49.978;8.298;2023-03-15T18:22:15;10.50;52.20
23713;DHT22;12035;49.978;8.298;2023-03-15T18:27:12;10.40;51.90
23713;DHT22;12035;49.978;8.298;2023-03-15T18:32:09;10.40;52.10
23713;DHT22;12035;49.978;8.298;2023-03-15T18:37:08;10.30;52.90
23713;DHT22;12035;49.978;8.298;2023-03-15T18:42:06;10.20;52.30
23713;DHT22;12035;49.978;8.298;2023-03-15T18:47:03;10.20;52.50
23713;DHT22;12035;49.978;8.298;2023-03-15T18:52:00;10.10;52.70
23713;DHT22;12035;49.978;8.298;2023-03-15T18:56:58;10.10;52.80
23713;DHT22;12035;49.978;8.298;2023-03-15T19:01:56;10.00;52.90
23713;DHT22;12035;49.978;8.298;2023-03-15T19:06:53;10.00;53.00
23713;DHT22;12035;49.978;8.298;2023-03-15T19:11:50;9.90;53.10
23713;DHT22;12035;49.978;8.298;2023-03-15T19:16:48;9.80;53.20
23713;DHT22;12035;49.978;8.298;2023-03-15T19:21:48;9.70;53.40
23713;DHT22;12035;49.978;8.298;2023-03-15T19:26:45;9.70;53.50
23713;DHT22;12035;49.978;8.298;2023-03-15T19:31:42;9.60;53.60
23713;DHT22;12035;49.978;8.298;2023-03-15T19:36:41;9.60;53.80
23713;DHT22;12035;49.978;8.298;2023-03-15T19:41:38;9.60;53.90
23713;DHT22;12035;49.978;8.298;2023-03-15T19:46:35;9.50;53.90
23713;DHT22;12035;49.978;8.298;2023-03-15T19:51:35;9.40;53.90
23713;DHT22;12035;49.978;8.298;2023-03-15T19:56:34;9.30;54.00
23713;DHT22;12035;49.978;8.298;2023-03-15T20:01:33;9.30;54.10
23713;DHT22;12035;49.978;8.298;2023-03-15T20:06:33;9.30;54.10
23713;DHT22;12035;49.978;8.298;2023-03-15T20:11:30;9.20;54.20
23713;DHT22;12035;49.978;8.298;2023-03-15T20:16:28;9.20;54.20
23713;DHT22;12035;49.978;8.298;2023-03-15T20:21:25;9.10;54.30
23713;DHT22;12035;49.978;8.298;2023-03-15T20:26:24;9.10;54.40
23713;DHT22;12035;49.978;8.298;2023-03-15T20:31:25;9.00;54.50
23713;DHT22;12035;49.978;8.298;2023-03-15T20:36:25;9.00;54.60
23713;DHT22;12035;49.978;8.298;2023-03-15T20:41:23;9.00;54.70
23713;DHT22;12035;49.978;8.298;2023-03-15T20:46:20;9.00;54.80
23713;DHT22;12035;49.978;8.298;2023-03-15T20:51:17;8.90;54.70
23713;DHT22;12035;49.978;8.298;2023-03-15T20:56:18;8.90;54.80
23713;DHT22;12035;49.978;8.298;2023-03-15T21:01:16;8.80;54.80
23713;DHT22;12035;49.978;8.298;2023-03-15T21:06:13;8.80;54.90
23713;DHT22;12035;49.978;8.298;2023-03-15T21:11:10;8.70;55.00
23713;DHT22;12035;49.978;8.298;2023-03-15T21:16:10;8.70;55.20
23713;DHT22;12035;49.978;8.298;2023-03-15T21:21:10;8.60;55.30
23713;DHT22;12035;49.978;8.298;2023-03-15T21:26:10;8.60;55.30
23713;DHT22;12035;49.978;8.298;2023-03-15T21:31:14;8.60;55.50
23713;DHT22;12035;49.978;8.298;2023-03-15T21:36:11;8.60;55.60
23713;DHT22;12035;49.978;8.298;2023-03-15T21:41:09;8.50;55.60
23713;DHT22;12035;49.978;8.298;2023-03-15T21:46:12;8.50;55.60
23713;DHT22;12035;49.978;8.298;2023-03-15T21:51:11;8.40;55.60
23713;DHT22;12035;49.978;8.298;2023-03-15T21:56:11;8.40;55.70
23713;DHT22;12035;49.978;8.298;2023-03-15T22:01:09;8.30;55.80
23713;DHT22;12035;49.978;8.298;2023-03-15T22:06:13;8.20;55.90
23713;DHT22;12035;49.978;8.298;2023-03-15T22:11:14;8.20;55.90
23713;DHT22;12035;49.978;8.298;2023-03-15T22:16:13;8.10;56.00
23713;DHT22;12035;49.978;8.298;2023-03-15T22:21:13;8.10;56.00
23713;DHT22;12035;49.978;8.298;2023-03-15T22:26:10;8.00;56.20
23713;DHT22;12035;49.978;8.298;2023-03-15T22:31:08;7.90;56.20
23713;DHT22;12035;49.978;8.298;2023-03-15T22:36:06;7.90;56.20
23713;DHT22;12035;49.978;8.298;2023-03-15T22:41:07;7.90;56.30
23713;DHT22;12035;49.978;8.298;2023-03-15T22:46:05;7.80;56.40
23713;DHT22;12035;49.978;8.298;2023-03-15T22:51:06;7.80;56.50
23713;DHT22;12035;49.978;8.298;2023-03-15T22:56:06;7.70;56.80
23713;DHT22;12035;49.978;8.298;2023-03-15T23:01:04;7.70;56.50
23713;DHT22;12035;49.978;8.298;2023-03-15T23:06:01;7.60;56.60
23713;DHT22;12035;49.978;8.298;2023-03-15T23:11:01;7.60;56.70
23713;DHT22;12035;49.978;8.298;2023-03-15T23:16:00;7.50;56.80
23713;DHT22;12035;49.978;8.298;2023-03-15T23:21:03;7.50;56.90
23713;DHT22;12035;49.978;8.298;2023-03-15T23:26:04;7.50;57.00
23713;DHT22;12035;49.978;8.298;2023-03-15T23:31:12;7.40;57.00
23713;DHT22;12035;49.978;8.298;2023-03-15T23:36:10;7.40;57.20
23713;DHT22;12035;49.978;8.298;2023-03-15T23:41:07;7.40;57.10
23713;DHT22;12035;49.978;8.298;2023-03-15T23:46:04;7.30;57.20
23713;DHT22;12035;49.978;8.298;2023-03-15T23:51:07;7.30;57.30
23713;DHT22;12035;49.978;8.298;2023-03-15T23:56:05;7.20;57.30
